createdAt,value
2018-05-23T00:00:15.562Z,15.20
2018-05-23T00:02:43.765Z,15.30
2018-05-23T00:05:12.904Z,15.30
2018-05-23T00:07:41.149Z,15.20
2018-05-23T00:10:09.263Z,15.20
2018-05-23T00:12:37.392Z,15.20
2018-05-23T00:15:05.531Z,15.20
2018-05-23T00:17:34.097Z,15.20
2018-05-23T00:20:02.271Z,15.20
2018-05-23T00:22:30.400Z,15.20
2018-05-23T00:24:58.518Z,15.20
2018-05-23T00:27:26.734Z,15.20
2018-05-23T00:29:55.266Z,15.30
2018-05-23T00:32:23.438Z,15.20
2018-05-23T00:34:51.566Z,15.20
2018-05-23T00:37:25.440Z,15.20
2018-05-23T00:39:53.803Z,15.20
2018-05-23T00:42:28.140Z,15.20
2018-05-23T00:44:57.173Z,15.20
2018-05-23T00:47:25.440Z,15.20
2018-05-23T00:49:54.477Z,15.20
2018-05-23T00:52:22.848Z,15.10
2018-05-23T00:55:03.090Z,15.10
2018-05-23T00:57:32.062Z,15.20
2018-05-23T01:00:00.283Z,15.20
2018-05-23T01:02:29.067Z,15.10
2018-05-23T01:04:57.196Z,15.20
2018-05-23T01:07:25.370Z,15.20
2018-05-23T01:09:53.492Z,15.20
2018-05-23T01:12:21.608Z,15.20
2018-05-23T01:14:49.718Z,15.20
2018-05-23T01:17:21.552Z,15.20
2018-05-23T01:19:49.700Z,15.30
2018-05-23T01:22:17.880Z,15.30
2018-05-23T01:24:46.006Z,15.30
2018-05-23T01:27:14.246Z,15.30
2018-05-23T01:29:42.358Z,15.30
2018-05-23T01:32:11.014Z,15.20
2018-05-23T01:34:39.923Z,15.10
2018-05-23T01:37:08.184Z,15.10
2018-05-23T01:39:37.411Z,15.10
2018-05-23T01:42:06.282Z,15.10
2018-05-23T01:44:35.190Z,15.10
2018-05-23T01:47:06.799Z,15.10
2018-05-23T01:49:34.914Z,15.00
2018-05-23T01:52:03.748Z,15.00
2018-05-23T01:54:31.921Z,14.90
2018-05-23T01:57:00.223Z,14.70
2018-05-23T01:59:28.248Z,14.70
2018-05-23T02:01:56.370Z,14.70
2018-05-23T02:04:25.508Z,14.70
2018-05-23T02:06:53.637Z,14.70
2018-05-23T02:09:22.528Z,14.70
2018-05-23T02:11:50.641Z,14.70
2018-05-23T02:14:18.783Z,14.70
2018-05-23T02:16:50.847Z,14.80
2018-05-23T02:19:19.740Z,14.80
2018-05-23T02:21:47.996Z,14.70
2018-05-23T02:24:16.099Z,14.70
2018-05-23T02:26:44.373Z,14.70
2018-05-23T02:29:13.255Z,14.80
2018-05-23T02:31:42.004Z,14.70
2018-05-23T02:34:10.116Z,14.80
2018-05-23T02:36:39.108Z,14.70
2018-05-23T02:39:07.284Z,14.70
2018-05-23T02:41:35.432Z,14.60
2018-05-23T02:44:03.579Z,14.60
2018-05-23T02:46:31.718Z,14.60
2018-05-23T02:49:00.599Z,14.60
2018-05-23T02:51:29.489Z,14.60
2018-05-23T02:53:58.373Z,14.60
2018-05-23T02:56:27.538Z,14.50
2018-05-23T02:58:56.348Z,14.60
2018-05-23T03:01:24.536Z,14.60
2018-05-23T03:03:52.687Z,14.60
2018-05-23T03:06:20.803Z,14.60
2018-05-23T03:08:48.926Z,14.70
2018-05-23T03:11:17.045Z,14.70
2018-05-23T03:13:45.192Z,14.70
2018-05-23T03:16:13.326Z,14.70
2018-05-23T03:18:41.438Z,14.60
2018-05-23T03:21:09.584Z,14.50
2018-05-23T03:23:37.703Z,14.50
2018-05-23T03:26:06.584Z,14.40
2018-05-23T03:28:35.585Z,14.40
2018-05-23T03:31:04.807Z,14.50
2018-05-23T03:33:32.923Z,14.50
2018-05-23T03:36:01.042Z,14.50
2018-05-23T03:38:29.279Z,14.50
2018-05-23T03:40:57.428Z,14.50
2018-05-23T03:43:25.570Z,14.50
2018-05-23T03:45:53.676Z,14.50
2018-05-23T03:48:22.782Z,14.40
2018-05-23T03:50:50.899Z,14.40
2018-05-23T03:53:19.037Z,14.40
2018-05-23T03:55:47.167Z,14.40
2018-05-23T03:58:15.382Z,14.60
2018-05-23T04:03:53.260Z,14.50
2018-05-23T04:06:33.247Z,14.50
2018-05-23T04:09:01.845Z,14.50
2018-05-23T04:11:30.017Z,14.60
2018-05-23T04:13:58.155Z,14.60
2018-05-23T04:16:26.285Z,14.60
2018-05-23T04:18:54.384Z,14.60
2018-05-23T04:21:22.502Z,14.60
2018-05-23T04:23:50.644Z,14.70
2018-05-23T04:26:18.751Z,14.80
2018-05-23T04:28:46.935Z,14.80
2018-05-23T04:31:15.662Z,14.80
2018-05-23T04:33:43.787Z,14.80
2018-05-23T04:36:11.917Z,14.90
2018-05-23T04:38:40.053Z,14.90
2018-05-23T04:41:08.184Z,14.90
2018-05-23T04:43:36.332Z,14.90
2018-05-23T04:46:04.455Z,15.00
2018-05-23T04:48:39.037Z,15.00
2018-05-23T04:51:07.127Z,15.00
2018-05-23T04:53:40.604Z,15.10
2018-05-23T04:56:15.052Z,15.10
2018-05-23T04:58:43.313Z,15.10
2018-05-23T05:01:11.421Z,15.10
2018-05-23T05:03:39.549Z,15.20
2018-05-23T05:06:08.460Z,15.20
2018-05-23T05:08:36.610Z,15.20
2018-05-23T05:11:04.733Z,15.30
2018-05-23T05:13:32.871Z,15.30
2018-05-23T05:16:00.988Z,15.30
2018-05-23T05:18:35.070Z,15.40
2018-05-23T05:21:03.223Z,15.30
2018-05-23T05:23:31.342Z,15.30
2018-05-23T05:25:59.462Z,15.30
2018-05-23T05:28:27.694Z,15.30
2018-05-23T05:30:58.882Z,15.30
2018-05-23T05:33:27.539Z,15.30
2018-05-23T05:35:55.717Z,15.30
2018-05-23T05:38:24.719Z,15.30
2018-05-23T05:40:53.680Z,15.20
2018-05-23T05:43:21.823Z,15.30
2018-05-23T05:45:49.967Z,15.30
2018-05-23T05:48:19.025Z,15.40
2018-05-23T05:50:47.588Z,15.40
2018-05-23T05:53:15.723Z,15.50
2018-05-23T05:55:43.864Z,15.50
2018-05-23T05:58:12.953Z,15.50
2018-05-23T06:00:41.093Z,15.60
2018-05-23T06:03:09.267Z,15.60
2018-05-23T06:05:37.984Z,15.60
2018-05-23T06:08:06.101Z,15.70
2018-05-23T06:10:34.223Z,15.70
2018-05-23T06:13:02.353Z,15.70
2018-05-23T06:15:30.468Z,15.70
2018-05-23T06:17:58.595Z,15.90
2018-05-23T06:20:26.725Z,15.90
2018-05-23T06:22:55.620Z,15.90
2018-05-23T06:25:24.506Z,16.00
2018-05-23T06:27:52.682Z,16.00
2018-05-23T06:30:20.869Z,16.00
2018-05-23T06:32:48.954Z,16.10
2018-05-23T06:35:17.830Z,16.10
2018-05-23T06:37:46.870Z,16.20
2018-05-23T06:40:15.689Z,16.20
2018-05-23T06:42:43.864Z,16.20
2018-05-23T06:45:12.014Z,16.30
2018-05-23T06:47:41.532Z,16.40
2018-05-23T06:50:09.663Z,16.50
2018-05-23T06:52:37.792Z,16.60
2018-05-23T06:55:05.923Z,16.70
2018-05-23T06:57:35.687Z,16.90
2018-05-23T07:00:04.247Z,17.00
2018-05-23T07:02:32.365Z,17.10
2018-05-23T07:05:01.257Z,17.30
2018-05-23T07:07:29.407Z,17.40
2018-05-23T07:09:57.524Z,17.60
2018-05-23T07:12:26.543Z,17.70
2018-05-23T07:14:54.660Z,17.80
2018-05-23T07:17:23.803Z,18.00
2018-05-23T07:19:51.925Z,18.00
2018-05-23T07:22:20.055Z,18.00
2018-05-23T07:24:48.202Z,17.90
2018-05-23T07:27:16.449Z,18.00
2018-05-23T07:29:44.597Z,18.10
2018-05-23T07:32:13.391Z,18.10
2018-05-23T07:34:41.729Z,18.30
2018-05-23T07:37:10.029Z,18.40
2018-05-23T07:39:40.682Z,18.50
2018-05-23T07:42:13.940Z,18.60
2018-05-23T07:44:43.371Z,18.60
2018-05-23T07:47:15.039Z,18.70
2018-05-23T07:49:44.398Z,18.80
2018-05-23T07:52:14.723Z,19.00
2018-05-23T07:54:44.058Z,19.10
2018-05-23T07:57:14.466Z,19.20
2018-05-23T07:59:43.974Z,19.30
2018-05-23T08:02:15.196Z,19.30
2018-05-23T08:04:43.382Z,19.40
2018-05-23T08:07:13.967Z,19.30
2018-05-23T08:09:44.393Z,19.30
2018-05-23T08:12:13.746Z,19.30
2018-05-23T08:14:42.421Z,19.40
2018-05-23T08:17:11.716Z,19.30
2018-05-23T08:19:49.454Z,19.30
2018-05-23T08:22:17.620Z,19.40
2018-05-23T08:24:50.659Z,19.50
2018-05-23T08:27:23.297Z,19.40
2018-05-23T08:29:54.205Z,19.40
2018-05-23T08:32:23.549Z,19.30
2018-05-23T08:34:53.091Z,19.30
2018-05-23T08:37:23.979Z,19.30
2018-05-23T08:39:52.533Z,19.30
2018-05-23T08:42:21.202Z,19.30
2018-05-23T08:44:50.122Z,19.30
2018-05-23T08:47:26.495Z,19.20
2018-05-23T08:50:01.199Z,19.20
2018-05-23T08:52:30.200Z,19.20
2018-05-23T09:00:06.887Z,19.20
2018-05-23T09:02:38.372Z,19.30
2018-05-23T09:05:07.818Z,19.40
2018-05-23T09:07:39.187Z,19.50
2018-05-23T09:12:38.064Z,19.70
2018-05-23T09:15:08.744Z,19.80
2018-05-23T09:17:39.074Z,19.90
2018-05-23T09:20:08.065Z,19.90
2018-05-23T09:22:36.398Z,19.80
2018-05-23T09:25:06.494Z,19.90
2018-05-23T09:27:35.693Z,19.90
2018-05-23T09:30:04.605Z,19.90
2018-05-23T09:32:33.220Z,19.90
2018-05-23T09:35:01.538Z,19.90
2018-05-23T09:37:30.641Z,19.90
2018-05-23T09:39:58.774Z,19.80
2018-05-23T09:42:28.149Z,19.80
2018-05-23T09:44:56.657Z,19.90
2018-05-23T09:47:31.028Z,19.90
2018-05-23T09:52:32.479Z,20.10
2018-05-23T09:55:01.918Z,20.20
2018-05-23T09:57:35.339Z,20.30
2018-05-23T10:00:04.943Z,20.20
2018-05-23T10:02:43.791Z,20.20
2018-05-23T10:05:13.024Z,20.30
2018-05-23T10:07:42.014Z,20.40
2018-05-23T10:10:10.620Z,20.50
2018-05-23T10:12:40.679Z,20.50
2018-05-23T10:15:09.869Z,20.40
2018-05-23T10:17:45.217Z,20.20
2018-05-23T10:20:13.522Z,20.20
2018-05-23T10:22:41.659Z,20.10
2018-05-23T10:25:11.606Z,20.00
2018-05-23T10:27:42.679Z,19.90
2018-05-23T10:30:13.164Z,19.80
2018-05-23T10:35:14.803Z,20.00
2018-05-23T10:37:45.028Z,20.20
2018-05-23T10:40:16.429Z,20.40
2018-05-23T10:42:46.158Z,20.70
2018-05-23T10:45:15.111Z,21.00
2018-05-23T10:47:46.461Z,21.20
2018-05-23T10:50:14.549Z,21.40
2018-05-23T10:52:43.247Z,21.60
2018-05-23T10:55:12.812Z,21.70
2018-05-23T10:58:00.903Z,21.90
2018-05-23T11:00:35.282Z,21.90
2018-05-23T11:03:04.712Z,21.90
2018-05-23T11:05:46.975Z,21.90
2018-05-23T11:08:23.572Z,22.30
2018-05-23T11:10:56.288Z,22.40
2018-05-23T11:13:25.474Z,22.70
2018-05-23T11:15:57.846Z,22.90
2018-05-23T11:18:42.942Z,23.20
2018-05-23T11:21:11.103Z,22.90
2018-05-23T11:23:39.610Z,22.50
2018-05-23T11:26:07.735Z,22.40
2018-05-23T11:28:35.845Z,22.30
2018-05-23T11:31:03.954Z,22.40
2018-05-23T11:33:32.077Z,22.40
2018-05-23T11:36:01.035Z,22.10
2018-05-23T11:38:33.120Z,21.70
2018-05-23T11:41:01.379Z,21.70
2018-05-23T11:43:29.507Z,21.10
2018-05-23T11:45:57.628Z,20.90
2018-05-23T11:48:25.879Z,20.90
2018-05-23T11:50:54.901Z,20.90
2018-05-23T11:53:23.495Z,21.00
2018-05-23T11:55:51.637Z,20.90
2018-05-23T11:58:27.797Z,21.00
2018-05-23T12:00:57.025Z,21.40
2018-05-23T12:03:25.152Z,21.40
2018-05-23T12:05:53.309Z,21.40
2018-05-23T12:08:22.475Z,21.20
2018-05-23T12:10:50.932Z,21.20
2018-05-23T12:13:19.046Z,21.60
2018-05-23T12:15:47.948Z,21.90
2018-05-23T12:18:17.014Z,21.90
2018-05-23T12:20:45.162Z,21.90
2018-05-23T12:23:13.302Z,22.10
2018-05-23T12:25:41.437Z,22.20
2018-05-23T12:28:09.723Z,22.20
2018-05-23T12:30:38.707Z,22.10
2018-05-23T12:33:07.250Z,22.30
2018-05-23T12:35:35.403Z,22.30
2018-05-23T12:38:03.641Z,22.90
2018-05-23T12:40:31.767Z,23.00
2018-05-23T12:43:00.009Z,23.00
2018-05-23T12:45:28.907Z,23.40
2018-05-23T12:48:00.224Z,23.50
2018-05-23T12:50:28.517Z,23.50
2018-05-23T12:52:56.688Z,23.50
2018-05-23T12:55:24.820Z,23.30
2018-05-23T12:57:55.031Z,23.20
2018-05-23T13:00:23.145Z,23.20
2018-05-23T13:02:51.272Z,23.10
2018-05-23T13:05:19.398Z,23.50
2018-05-23T13:07:47.778Z,23.80
2018-05-23T13:10:16.670Z,23.80
2018-05-23T13:12:45.620Z,23.80
2018-05-23T13:15:13.698Z,23.90
2018-05-23T13:17:42.811Z,24.30
2018-05-23T13:20:10.988Z,24.80
2018-05-23T13:22:39.110Z,25.50
2018-05-23T13:25:07.469Z,26.20
2018-05-23T13:27:35.583Z,26.80
2018-05-23T13:30:03.699Z,27.90
2018-05-23T13:32:32.621Z,29.00
2018-05-23T13:35:01.517Z,30.30
2018-05-23T13:37:30.400Z,31.40
2018-05-23T13:39:58.524Z,31.00
2018-05-23T13:42:26.662Z,29.60
2018-05-23T13:44:54.791Z,29.30
2018-05-23T13:47:23.900Z,28.80
2018-05-23T13:49:52.221Z,29.90
2018-05-23T13:52:20.356Z,32.30
2018-05-23T13:54:48.474Z,33.80
2018-05-23T13:57:17.697Z,33.90
2018-05-23T13:59:46.384Z,35.40
2018-05-23T14:02:14.961Z,35.30
2018-05-23T14:04:43.055Z,35.40
2018-05-23T14:07:11.193Z,35.10
2018-05-23T14:09:39.333Z,35.00
2018-05-23T14:12:07.822Z,31.20
2018-05-23T14:14:35.951Z,29.70
2018-05-23T14:17:04.106Z,28.60
2018-05-23T14:19:32.215Z,27.50
2018-05-23T14:22:00.326Z,27.60
2018-05-23T14:24:28.443Z,29.70
2018-05-23T14:26:56.604Z,29.70
2018-05-23T14:29:24.719Z,33.10
2018-05-23T14:31:52.840Z,34.60
2018-05-23T14:34:21.920Z,35.90
2018-05-23T14:36:50.393Z,36.10
2018-05-23T14:39:24.371Z,36.90
2018-05-23T14:44:53.911Z,38.90
2018-05-23T15:05:45.619Z,39.70
2018-05-23T15:08:21.682Z,39.70
2018-05-23T15:10:49.766Z,39.90
2018-05-23T15:13:18.814Z,38.00
2018-05-23T15:15:47.286Z,35.60
2018-05-23T15:30:19.627Z,32.80
2018-05-23T15:32:55.003Z,34.20
2018-05-23T15:35:25.773Z,35.60
2018-05-23T15:43:47.177Z,38.10
2018-05-23T15:46:15.277Z,38.80
2018-05-23T15:48:43.404Z,38.80
2018-05-23T15:51:12.426Z,37.70
2018-05-23T15:53:40.459Z,35.30
2018-05-23T15:56:09.352Z,33.50
2018-05-23T15:58:37.488Z,32.90
2018-05-23T16:01:05.604Z,32.20
2018-05-23T16:03:33.724Z,31.90
2018-05-23T16:06:01.846Z,32.90
2018-05-23T16:08:29.969Z,32.10
2018-05-23T16:10:59.219Z,32.00
2018-05-23T16:13:27.317Z,32.80
2018-05-23T16:16:01.623Z,33.60
2018-05-23T16:18:29.742Z,33.60
2018-05-23T16:20:57.825Z,34.60
2018-05-23T16:23:26.722Z,34.60
2018-05-23T16:25:54.840Z,35.50
2018-05-23T16:28:23.030Z,35.60
2018-05-23T16:30:51.133Z,34.70
2018-05-23T16:33:19.280Z,33.80
2018-05-23T16:35:48.375Z,33.50
2018-05-23T16:38:20.266Z,31.20
2018-05-23T16:40:48.421Z,31.00
2018-05-23T16:43:18.253Z,29.90
2018-05-23T16:45:46.415Z,30.50
2018-05-23T16:48:14.583Z,31.40
2018-05-23T16:50:43.414Z,31.40
2018-05-23T16:53:15.057Z,31.00
2018-05-23T16:55:45.066Z,29.70
2018-05-23T16:58:20.435Z,29.10
2018-05-23T17:00:49.300Z,29.30
2018-05-23T17:03:19.335Z,29.60
2018-05-23T17:05:47.447Z,28.90
2018-05-23T17:08:17.700Z,28.30
2018-05-23T17:10:47.046Z,27.60
2018-05-23T17:13:16.517Z,27.90
2018-05-23T17:15:46.369Z,29.30
2018-05-23T17:18:14.983Z,30.10
2018-05-23T17:20:44.037Z,30.50
2018-05-23T17:23:12.767Z,30.90
2018-05-23T17:25:40.893Z,31.60
2018-05-23T17:28:09.112Z,31.80
2018-05-23T17:30:37.256Z,31.40
2018-05-23T17:33:05.384Z,30.30
2018-05-23T17:35:33.495Z,28.70
2018-05-23T17:38:05.295Z,28.20
2018-05-23T17:40:33.423Z,27.20
2018-05-23T17:43:02.656Z,26.40
2018-05-23T17:45:30.801Z,25.30
2018-05-23T17:47:59.583Z,25.10
2018-05-23T17:50:28.495Z,24.80
2018-05-23T17:52:56.630Z,24.80
2018-05-23T17:55:24.753Z,24.60
2018-05-23T17:57:52.943Z,24.50
2018-05-23T18:00:22.620Z,24.30
2018-05-23T18:02:50.723Z,24.20
2018-05-23T18:05:18.858Z,23.90
2018-05-23T18:07:47.095Z,23.70
2018-05-23T18:10:15.224Z,23.40
2018-05-23T18:12:43.399Z,23.30
2018-05-23T18:15:12.676Z,23.00
2018-05-23T18:17:40.849Z,22.80
2018-05-23T18:20:08.906Z,22.30
2018-05-23T18:22:37.047Z,21.90
2018-05-23T18:25:05.565Z,21.60
2018-05-23T18:27:33.705Z,21.50
2018-05-23T18:30:01.873Z,21.40
2018-05-23T18:32:30.711Z,21.40
2018-05-23T18:34:58.855Z,21.30
2018-05-23T18:37:27.830Z,21.30
2018-05-23T18:39:55.972Z,21.30
2018-05-23T18:42:24.080Z,21.30
2018-05-23T18:44:52.198Z,21.20
2018-05-23T18:47:21.805Z,21.20
2018-05-23T18:49:49.941Z,21.00
2018-05-23T18:52:18.077Z,20.80
2018-05-23T18:54:47.060Z,20.80
2018-05-23T18:57:15.284Z,20.60
2018-05-23T18:59:43.441Z,20.60
2018-05-23T19:02:11.603Z,20.30
2018-05-23T19:04:39.742Z,20.10
2018-05-23T19:07:07.995Z,20.00
2018-05-23T19:09:36.116Z,19.90
2018-05-23T19:12:04.265Z,19.80
2018-05-23T19:14:32.404Z,19.70
2018-05-23T19:17:00.667Z,19.60
2018-05-23T19:19:28.819Z,19.60
2018-05-23T19:21:57.763Z,19.60
2018-05-23T19:24:25.889Z,19.60
2018-05-23T19:26:54.023Z,19.50
2018-05-23T19:29:22.155Z,19.50
2018-05-23T19:31:51.054Z,19.40
2018-05-23T19:34:19.284Z,19.40
2018-05-23T19:36:49.781Z,19.30
2018-05-23T19:39:17.911Z,19.30
2018-05-23T19:41:46.037Z,19.30
2018-05-23T19:44:14.160Z,19.30
2018-05-23T19:46:42.454Z,19.20
2018-05-23T19:49:10.565Z,19.10
2018-05-23T19:51:38.682Z,19.00
2018-05-23T19:54:06.808Z,18.80
2018-05-23T19:56:34.980Z,18.70
2018-05-23T19:59:03.082Z,18.50
2018-05-23T20:01:31.943Z,18.10
2018-05-23T20:04:00.074Z,17.90
2018-05-23T20:06:30.905Z,17.80
2018-05-23T20:08:59.033Z,17.80
2018-05-23T20:11:27.147Z,17.80
2018-05-23T20:13:55.338Z,17.70
2018-05-23T20:16:23.397Z,17.50
2018-05-23T20:18:51.522Z,17.40
2018-05-23T20:21:19.634Z,17.30
2018-05-23T20:23:47.762Z,17.20
2018-05-23T20:26:15.879Z,17.20
2018-05-23T20:28:44.146Z,15.60
2018-05-23T20:31:12.322Z,17.30
2018-05-23T20:33:40.439Z,17.30
2018-05-23T20:36:08.558Z,17.40
2018-05-23T20:38:36.689Z,17.50
2018-05-23T20:41:04.820Z,17.50
2018-05-23T20:43:33.060Z,17.30
2018-05-23T20:46:01.171Z,17.10
2018-05-23T20:48:29.289Z,17.00
2018-05-23T20:50:57.392Z,16.80
2018-05-23T20:53:25.514Z,16.60
2018-05-23T20:55:53.642Z,16.60
2018-05-23T20:58:21.945Z,16.60
2018-05-23T21:00:50.026Z,16.60
2018-05-23T21:03:18.904Z,16.70
2018-05-23T21:05:47.134Z,16.80
2018-05-23T21:08:17.196Z,16.80
2018-05-23T21:10:45.324Z,16.80
2018-05-23T21:13:13.434Z,16.80
2018-05-23T21:15:41.604Z,16.70
2018-05-23T21:18:12.665Z,16.80
2018-05-23T21:20:40.778Z,16.80
2018-05-23T21:23:08.887Z,16.80
2018-05-23T21:25:37.013Z,16.90
2018-05-23T21:28:06.455Z,16.90
2018-05-23T21:30:35.119Z,16.90
2018-05-23T21:33:05.949Z,17.00
2018-05-23T21:35:34.340Z,16.90
2018-05-23T21:38:03.525Z,16.80
2018-05-23T21:40:31.634Z,16.70
2018-05-23T21:42:59.760Z,16.60
2018-05-23T21:50:30.352Z,16.50
2018-05-23T21:52:58.996Z,16.50
2018-05-23T21:55:27.908Z,16.40
2018-05-23T21:57:56.464Z,16.40
2018-05-23T22:02:56.345Z,16.40
2018-05-23T22:05:24.454Z,16.30
2018-05-23T22:07:56.313Z,16.20
2018-05-23T22:10:24.426Z,16.10
2018-05-23T22:12:54.506Z,16.10
2018-05-23T22:15:22.642Z,16.10
2018-05-23T22:17:51.882Z,16.00
2018-05-23T22:20:20.005Z,16.00
2018-05-23T22:22:48.200Z,16.10
2018-05-23T22:25:16.304Z,16.10
2018-05-23T22:27:48.261Z,16.00
2018-05-23T22:30:17.671Z,16.00
2018-05-23T22:32:49.335Z,16.00
2018-05-23T22:35:17.912Z,16.00
2018-05-23T22:37:47.005Z,15.70
2018-05-23T22:40:15.099Z,15.70
2018-05-23T22:42:43.620Z,15.50
2018-05-23T22:45:11.882Z,15.40
2018-05-23T22:47:41.023Z,15.20
2018-05-23T22:50:09.153Z,15.10
2018-05-23T22:52:37.288Z,15.10
2018-05-23T22:55:06.203Z,15.10
2018-05-23T22:57:37.823Z,15.00
2018-05-23T23:00:05.982Z,15.00
2018-05-23T23:02:34.177Z,15.00
2018-05-23T23:05:02.298Z,15.10
2018-05-23T23:07:32.368Z,15.10
2018-05-23T23:10:00.534Z,15.10
2018-05-23T23:12:28.711Z,15.20
2018-05-23T23:14:56.817Z,15.40
2018-05-23T23:17:25.368Z,15.40
2018-05-23T23:19:53.474Z,15.30
2018-05-23T23:22:33.674Z,15.20
2018-05-23T23:25:01.829Z,15.10
2018-05-23T23:27:30.037Z,15.10
2018-05-23T23:29:58.163Z,15.10
2018-05-23T23:32:26.357Z,15.20
2018-05-23T23:34:55.564Z,15.10
2018-05-23T23:37:23.773Z,15.20
2018-05-23T23:39:51.899Z,15.20
2018-05-23T23:42:20.019Z,15.30
2018-05-23T23:44:48.138Z,15.40
2018-05-23T23:47:23.374Z,15.40
2018-05-23T23:49:58.930Z,15.50
2018-05-23T23:52:27.051Z,15.50
2018-05-23T23:54:59.555Z,15.50
2018-05-23T23:57:27.787Z,15.50
2018-05-23T23:59:55.899Z,15.50
